Time;durP1;ratioP1;P1;durP2;ratioP2;P2;SDS_P1;SDS_P2;PMS_P1;PMS_P2;Temp;Humidity;BMP_temperature;BMP_pressure;BME280_temperature;BME280_humidity;BME280_pressure;Samples;Min_cycle;Max_cycle;Signal;HPM_P1;HPM_P2
2023/01/05 00:01:21;;;;;;;18.83;3.45;;;11.50;99.90;;;;;;4843779;29;20057;-71
2023/01/05 00:03:47;;;;;;;17.23;3.58;;;11.50;99.90;;;;;;4844256;29;20064;-71
2023/01/05 00:06:16;;;;;;;19.02;3.33;;;11.40;99.90;;;;;;4856936;29;20041;-71
2023/01/05 00:08:45;;;;;;;17.48;3.25;;;11.40;99.90;;;;;;4859525;29;20048;-71
2023/01/05 00:22:29;;;;;;;17.48;3.47;;;11.50;99.90;;;;;;4857490;29;20064;-72
2023/01/05 00:25:09;;;;;;;16.13;3.53;;;11.50;99.90;;;;;;4859129;29;20049;-72
2023/01/05 00:27:35;;;;;;;21.23;3.40;;;11.50;99.90;;;;;;4857439;29;20053;-72
2023/01/05 00:30:02;;;;;;;15.88;3.13;;;11.60;99.90;;;;;;4858989;29;20080;-71
2023/01/05 00:32:27;;;;;;;;;;;11.50;99.90;;;;;;4858497;29;20125;-71
2023/01/05 00:34:55;;;;;;;17.00;2.88;;;11.60;99.90;;;;;;4859154;29;20011;-71
2023/01/05 00:37:26;;;;;;;14.95;3.70;;;11.60;99.90;;;;;;4856635;29;20056;-70
2023/01/05 00:39:52;;;;;;;19.73;3.35;;;11.60;99.90;;;;;;4843723;29;20048;-70
2023/01/05 00:42:21;;;;;;;15.80;3.20;;;11.70;99.90;;;;;;4843346;29;20060;-70
2023/01/05 00:44:47;;;;;;;14.68;3.17;;;11.70;99.90;;;;;;4858620;29;20060;-70
2023/01/05 00:47:13;;;;;;;23.77;4.00;;;11.70;99.90;;;;;;4857765;29;20038;-70
2023/01/05 00:49:39;;;;;;;18.52;3.45;;;11.60;99.90;;;;;;4843631;29;20042;-70
2023/01/05 00:52:05;;;;;;;16.02;3.17;;;11.60;99.90;;;;;;4856726;29;20045;-71
2023/01/05 00:54:31;;;;;;;16.27;3.17;;;11.70;99.90;;;;;;4857925;29;20108;-70
2023/01/05 00:56:57;;;;;;;20.38;3.28;;;11.70;99.90;;;;;;4855978;29;20189;-71
2023/01/05 00:59:23;;;;;;;23.08;3.90;;;11.60;99.90;;;;;;4841008;29;20089;-71
2023/01/05 01:01:50;;;;;;;15.02;3.30;;;11.70;99.90;;;;;;4855691;29;20057;-71
2023/01/05 01:04:18;;;;;;;18.10;3.58;;;11.70;99.90;;;;;;4860294;29;20158;-71
2023/01/05 01:06:44;;;;;;;24.63;3.85;;;11.70;99.90;;;;;;4858203;29;20041;-71
2023/01/05 01:09:10;;;;;;;17.35;3.55;;;11.60;99.90;;;;;;4856162;29;20053;-70
2023/01/05 01:11:36;;;;;;;;;;;11.60;99.90;;;;;;4843397;29;20042;-71
2023/01/05 01:14:04;;;;;;;23.50;4.03;;;11.60;99.90;;;;;;4857741;29;19943;-70
2023/01/05 01:16:33;;;;;;;19.42;3.25;;;11.60;99.90;;;;;;4840403;29;20116;-78
2023/01/05 01:18:59;;;;;;;20.95;3.15;;;11.50;99.90;;;;;;4859071;29;20045;-78
2023/01/05 01:21:25;;;;;;;17.35;3.47;;;11.50;99.90;;;;;;4859962;29;20056;-77
2023/01/05 01:23:51;;;;;;;17.70;3.50;;;11.50;99.90;;;;;;4840382;29;20072;-77
2023/01/05 01:26:17;;;;;;;18.67;3.38;;;11.50;99.90;;;;;;4840825;29;20422;-78
2023/01/05 01:28:46;;;;;;;17.95;3.22;;;11.50;99.90;;;;;;4853092;29;20045;-79
2023/01/05 01:31:15;;;;;;;19.95;3.35;;;11.40;99.90;;;;;;4859153;29;20045;-77
2023/01/05 01:33:41;;;;;;;14.98;3.42;;;11.40;99.90;;;;;;4857801;29;20098;-79
2023/01/05 01:36:07;;;;;;;21.27;3.58;;;11.30;99.90;;;;;;4858513;29;20041;-78
2023/01/05 01:38:33;;;;;;;;;;;11.20;99.90;;;;;;4840815;29;20533;-78
2023/01/05 01:40:58;;;;;;;23.63;3.55;;;11.20;99.90;;;;;;4826024;29;19921;-77
2023/01/05 01:43:52;;;;;;;17.02;3.22;;;11.20;99.90;;;;;;4834278;29;20084;-76
2023/01/05 01:46:19;;;;;;;20.70;3.33;;;11.20;99.90;;;;;;4856611;29;20088;-78
2023/01/05 01:49:10;;;;;;;14.10;3.20;;;11.20;99.90;;;;;;4832635;29;20407;-78
2023/01/05 01:51:40;;;;;;;15.63;3.35;;;11.20;99.90;;;;;;4840833;29;20501;-78
2023/01/05 01:54:09;;;;;;;13.30;2.75;;;11.10;99.90;;;;;;4858079;29;20049;-79
2023/01/05 01:56:41;;;;;;;15.52;2.67;;;11.00;99.90;;;;;;4858726;29;20056;-77
2023/01/05 01:59:07;;;;;;;15.25;2.78;;;11.00;99.90;;;;;;4857082;29;20574;-77
2023/01/05 02:01:33;;;;;;;20.33;3.22;;;10.90;99.90;;;;;;4856438;29;20096;-78
2023/01/05 02:04:00;;;;;;;15.38;3.08;;;10.90;99.90;;;;;;4855857;29;20053;-78
2023/01/05 02:06:26;;;;;;;13.15;2.42;;;10.90;99.90;;;;;;4855094;29;20044;-77
2023/01/05 02:08:52;;;;;;;19.08;3.17;;;10.90;99.90;;;;;;4857635;29;20045;-77
2023/01/05 02:11:30;;;;;;;20.73;3.33;;;10.90;99.90;;;;;;4855913;29;20120;-78
2023/01/05 02:14:11;;;;;;;14.75;3.03;;;10.90;99.90;;;;;;4856181;29;20060;-77
2023/01/05 02:16:55;;;;;;;15.90;2.85;;;10.90;99.90;;;;;;4855640;29;20049;-77
2023/01/05 02:19:45;;;;;;;15.18;2.88;;;10.80;99.90;;;;;;4857171;29;20494;-77
2023/01/05 02:22:56;;;;;;;15.77;3.90;;;10.80;99.90;;;;;;4855504;29;20053;-77
2023/01/05 02:25:28;;;;;;;15.38;2.85;;;10.70;99.90;;;;;;4842154;29;20524;-77
2023/01/05 02:28:21;;;;;;;17.02;2.70;;;10.80;99.90;;;;;;4842189;29;20581;-78
2023/01/05 02:31:08;;;;;;;14.57;3.38;;;10.70;99.90;;;;;;4854906;29;20045;-77
2023/01/05 02:34:03;;;;;;;21.00;4.85;;;10.70;99.90;;;;;;4856694;29;20077;-78
2023/01/05 02:36:52;;;;;;;13.13;3.00;;;10.70;99.90;;;;;;4855444;29;20072;-78
2023/01/05 02:39:35;;;;;;;16.08;2.83;;;10.70;99.90;;;;;;4840040;29;20041;-78
2023/01/05 02:42:12;;;;;;;18.35;3.13;;;10.70;99.90;;;;;;4860536;29;20074;-78
2023/01/05 02:44:38;;;;;;;18.73;3.65;;;10.70;99.90;;;;;;4851288;29;20053;-78
2023/01/05 02:47:27;;;;;;;17.90;3.10;;;10.70;99.90;;;;;;4856113;29;20037;-77
2023/01/05 02:50:16;;;;;;;18.05;3.33;;;10.60;99.90;;;;;;4841214;29;20129;-78
2023/01/05 02:53:11;;;;;;;22.98;3.78;;;10.70;99.90;;;;;;4852692;29;20052;-78
2023/01/05 02:55:44;;;;;;;22.08;3.70;;;10.70;99.90;;;;;;4832822;29;20593;-77
2023/01/05 02:58:18;;;;;;;15.50;3.10;;;10.60;99.90;;;;;;4858222;29;20065;-76
2023/01/05 03:00:51;;;;;;;12.32;2.85;;;10.70;99.90;;;;;;4856127;29;20060;-77
2023/01/05 03:03:55;;;;;;;17.13;3.05;;;10.70;99.90;;;;;;4857977;29;20041;-77
2023/01/05 03:06:32;;;;;;;17.13;3.25;;;10.60;99.90;;;;;;4769510;29;20062;-77
2023/01/05 03:09:01;;;;;;;21.75;3.50;;;10.60;99.90;;;;;;4816649;29;20061;-77
2023/01/05 03:14:34;;;;;;;20.08;3.63;;;10.70;99.90;;;;;;4855813;29;20124;-77
2023/01/05 03:17:01;;;;;;;21.00;3.25;;;10.70;99.90;;;;;;4855762;29;20059;-77
2023/01/05 03:19:35;;;;;;;19.52;3.15;;;10.60;99.90;;;;;;4855332;29;20209;-77
2023/01/05 03:36:12;;;;;;;16.98;3.40;;;10.60;99.90;;;;;;4858007;29;20057;-71
2023/01/05 03:38:46;;;;;;;23.30;4.03;;;10.60;99.90;;;;;;4858937;29;20066;-72
2023/01/05 03:41:17;;;;;;;19.27;3.58;;;10.60;99.90;;;;;;4858260;29;20140;-71
2023/01/05 03:43:43;;;;;;;22.88;3.78;;;10.60;99.90;;;;;;4843306;29;20049;-71
2023/01/05 03:46:17;;;;;;;19.77;3.40;;;10.60;99.90;;;;;;4858714;29;20053;-72
2023/01/05 03:48:43;;;;;;;23.75;3.55;;;10.70;99.90;;;;;;4856065;29;20065;-72
2023/01/05 03:51:09;;;;;;;17.67;3.28;;;10.70;99.90;;;;;;4858264;29;20522;-78
2023/01/05 03:53:35;;;;;;;18.08;3.75;;;10.70;99.90;;;;;;4860262;29;20089;-78
2023/01/05 03:56:01;;;;;;;17.60;3.42;;;10.70;99.90;;;;;;4857978;29;20052;-78
2023/01/05 03:58:27;;;;;;;20.77;4.40;;;10.70;99.90;;;;;;4858144;29;20137;-77
2023/01/05 04:00:52;;;;;;;20.27;3.35;;;10.70;99.90;;;;;;4857206;29;20053;-77
2023/01/05 04:03:18;;;;;;;14.00;3.22;;;10.60;99.90;;;;;;4861088;29;20224;-78
2023/01/05 04:05:44;;;;;;;16.83;2.75;;;10.60;99.90;;;;;;4840652;29;20049;-77
2023/01/05 04:08:10;;;;;;;20.58;3.28;;;10.60;99.90;;;;;;4853180;29;20127;-77
2023/01/05 04:10:35;;;;;;;18.60;3.92;;;10.70;99.90;;;;;;4842826;29;20101;-78
2023/01/05 04:13:01;;;;;;;23.50;3.90;;;10.70;99.90;;;;;;4843853;29;20041;-78
2023/01/05 04:15:27;;;;;;;20.05;3.70;;;10.70;99.90;;;;;;4856906;29;20509;-78
2023/01/05 04:17:52;;;;;;;20.83;4.13;;;10.70;99.90;;;;;;4860670;29;20049;-78
2023/01/05 04:20:21;;;;;;;20.13;3.38;;;10.70;99.90;;;;;;4858201;29;20049;-78
2023/01/05 04:22:46;;;;;;;25.08;3.33;;;10.80;99.90;;;;;;4844535;29;20052;-77
2023/01/05 04:25:12;;;;;;;18.55;3.53;;;10.70;99.90;;;;;;4838532;29;20054;-78
2023/01/05 04:27:38;;;;;;;23.75;3.47;;;10.70;99.90;;;;;;4851406;29;20188;-78
2023/01/05 04:30:05;;;;;;;16.10;2.90;;;10.80;99.90;;;;;;4841465;29;20041;-71
2023/01/05 04:32:30;;;;;;;18.85;3.00;;;10.80;99.90;;;;;;4857507;29;20067;-71
2023/01/05 04:34:56;;;;;;;20.77;3.88;;;10.80;99.90;;;;;;4826011;29;20094;-71
2023/01/05 04:37:22;;;;;;;18.55;3.40;;;10.70;99.90;;;;;;4856322;29;20521;-71
2023/01/05 04:39:48;;;;;;;17.52;3.90;;;10.70;99.90;;;;;;4858160;29;20467;-71
2023/01/05 04:42:13;;;;;;;20.27;3.25;;;10.70;99.90;;;;;;4842512;29;20121;-71
2023/01/05 04:44:39;;;;;;;18.85;3.55;;;10.70;99.90;;;;;;4855877;29;20053;-71
2023/01/05 04:47:05;;;;;;;12.82;3.03;;;10.70;99.90;;;;;;4855874;29;20029;-71
2023/01/05 04:49:31;;;;;;;14.75;3.47;;;10.60;99.90;;;;;;4842491;29;20112;-71
2023/01/05 04:51:56;;;;;;;15.13;3.42;;;10.60;99.90;;;;;;4856282;29;20124;-71
2023/01/05 04:54:22;;;;;;;19.67;3.30;;;10.60;99.90;;;;;;4857403;29;20049;-72
2023/01/05 04:56:49;;;;;;;17.50;3.35;;;10.70;99.90;;;;;;4856899;29;20049;-72
2023/01/05 04:59:15;;;;;;;20.00;3.10;;;10.60;99.90;;;;;;4843674;29;20050;-72
2023/01/05 05:01:40;;;;;;;18.42;3.15;;;10.60;99.90;;;;;;4840276;29;20486;-73
2023/01/05 05:04:06;;;;;;;16.17;3.97;;;10.70;99.90;;;;;;4858418;29;20050;-72
2023/01/05 05:06:32;;;;;;;19.70;3.30;;;10.70;99.90;;;;;;4826334;29;20045;-71
2023/01/05 05:08:57;;;;;;;16.63;3.13;;;10.60;99.90;;;;;;4842903;29;20592;-78
2023/01/05 05:11:23;;;;;;;16.05;2.67;;;10.60;99.90;;;;;;4841422;29;20045;-79
2023/01/05 05:13:49;;;;;;;15.10;3.13;;;10.70;99.90;;;;;;4842887;29;20033;-77
2023/01/05 05:16:15;;;;;;;20.08;3.45;;;10.60;99.90;;;;;;4856593;29;20044;-78
2023/01/05 05:18:40;;;;;;;21.55;3.22;;;10.60;99.90;;;;;;4859240;29;20041;-77
2023/01/05 05:21:06;;;;;;;17.95;3.30;;;10.60;99.90;;;;;;4856427;29;20041;-77
2023/01/05 05:23:32;;;;;;;16.05;3.05;;;10.60;99.90;;;;;;4856324;29;20114;-77
2023/01/05 05:25:57;;;;;;;15.15;3.08;;;10.60;99.90;;;;;;4856891;29;20577;-77
2023/01/05 05:28:26;;;;;;;21.35;3.50;;;10.60;99.90;;;;;;4857969;29;20129;-77
2023/01/05 05:30:54;;;;;;;17.73;3.05;;;10.60;99.90;;;;;;4816819;29;20045;-78
2023/01/05 05:33:20;;;;;;;18.83;3.50;;;10.60;99.90;;;;;;4826323;29;20037;-77
2023/01/05 05:35:46;;;;;;;20.50;3.15;;;10.60;99.90;;;;;;4854323;29;20049;-78
2023/01/05 05:38:15;;;;;;;18.33;3.53;;;10.60;99.90;;;;;;4842688;29;20112;-78
2023/01/05 05:40:40;;;;;;;17.65;3.70;;;10.60;99.90;;;;;;4841085;29;20406;-78
2023/01/05 05:43:06;;;;;;;21.88;3.45;;;10.70;99.90;;;;;;4857731;29;20060;-71
2023/01/05 05:45:32;;;;;;;18.13;3.80;;;10.60;99.90;;;;;;4854255;29;20124;-72
2023/01/05 05:47:59;;;;;;;18.70;3.30;;;10.60;99.90;;;;;;4851107;29;20391;-71
2023/01/05 05:50:25;;;;;;;14.23;3.70;;;10.60;99.90;;;;;;4855137;29;20045;-70
2023/01/05 05:52:51;;;;;;;22.85;3.40;;;10.60;99.90;;;;;;4856617;29;20176;-70
2023/01/05 05:55:17;;;;;;;16.80;3.25;;;10.70;99.90;;;;;;4839117;29;20052;-71
2023/01/05 05:57:42;;;;;;;16.95;2.78;;;10.70;99.90;;;;;;4852672;29;20087;-70
2023/01/05 06:00:09;;;;;;;19.17;3.63;;;10.60;99.90;;;;;;4853736;29;20506;-69
2023/01/05 06:02:35;;;;;;;19.98;3.20;;;10.60;99.90;;;;;;4837478;29;20049;-71
2023/01/05 06:05:00;;;;;;;15.40;3.35;;;10.70;99.90;;;;;;4855849;29;20116;-71
2023/01/05 06:07:26;;;;;;;19.95;3.53;;;10.70;99.90;;;;;;4834894;29;20137;-71
2023/01/05 06:09:52;;;;;;;18.73;4.07;;;10.60;99.90;;;;;;4831784;29;20409;-70
2023/01/05 06:12:17;;;;;;;19.88;3.50;;;10.60;99.90;;;;;;4856569;29;20056;-76
2023/01/05 06:14:43;;;;;;;20.63;3.20;;;10.60;99.90;;;;;;4854968;29;20048;-76
2023/01/05 06:17:09;;;;;;;18.55;3.08;;;10.60;99.90;;;;;;4851199;29;20049;-77
2023/01/05 06:19:34;;;;;;;15.07;2.88;;;10.60;99.90;;;;;;4856084;29;20119;-76
2023/01/05 06:22:00;;;;;;;19.02;3.38;;;10.60;99.90;;;;;;4855932;29;20057;-77
2023/01/05 06:24:26;;;;;;;18.10;3.40;;;10.60;99.90;;;;;;4856132;29;20069;-76
2023/01/05 06:26:51;;;;;;;17.98;2.85;;;10.60;99.90;;;;;;4855206;29;20057;-77
2023/01/05 06:29:17;;;;;;;16.15;3.08;;;10.60;99.90;;;;;;4838668;29;20056;-76
2023/01/05 06:31:43;;;;;;;12.55;3.15;;;10.60;99.90;;;;;;4851714;29;20045;-76
2023/01/05 06:34:08;;;;;;;14.68;3.08;;;10.60;99.90;;;;;;4841581;29;20053;-76
2023/01/05 06:36:34;;;;;;;15.27;3.25;;;10.50;99.90;;;;;;4852012;29;20179;-77
2023/01/05 06:39:00;;;;;;;18.27;2.80;;;10.50;99.90;;;;;;4855882;29;20403;-76
2023/01/05 06:41:25;;;;;;;11.85;2.58;;;10.50;99.90;;;;;;4855762;29;20186;-77
2023/01/05 06:43:51;;;;;;;17.02;2.85;;;10.50;99.90;;;;;;4824601;29;20060;-77
2023/01/05 06:46:17;;;;;;;17.02;3.72;;;10.60;99.90;;;;;;4837012;29;20041;-77
2023/01/05 06:48:45;;;;;;;15.07;3.10;;;10.60;99.90;;;;;;4848780;29;20056;-77
2023/01/05 06:51:11;;;;;;;23.00;3.70;;;10.70;99.90;;;;;;4857671;29;20133;-77
2023/01/05 06:53:37;;;;;;;19.42;3.53;;;10.70;99.90;;;;;;4857515;29;20109;-76
2023/01/05 06:56:03;;;;;;;15.05;2.60;;;10.80;99.90;;;;;;4856733;29;20053;-76
2023/01/05 06:58:28;;;;;;;22.42;3.72;;;10.80;99.90;;;;;;4855817;29;20202;-76
2023/01/05 07:00:54;;;;;;;19.95;3.85;;;10.80;99.90;;;;;;4844394;29;20064;-76
2023/01/05 07:03:22;;;;;;;15.48;3.35;;;10.80;99.90;;;;;;4858803;29;20053;-69
2023/01/05 07:05:48;;;;;;;15.63;3.05;;;10.80;99.90;;;;;;4860134;29;20121;-69
2023/01/05 07:08:13;;;;;;;19.40;3.20;;;10.90;99.90;;;;;;4857891;29;20033;-69
2023/01/05 07:10:39;;;;;;;22.85;3.80;;;10.90;99.90;;;;;;4840499;29;20116;-69
2023/01/05 07:13:05;;;;;;;22.67;3.80;;;10.90;99.90;;;;;;4854114;29;20049;-72
2023/01/05 07:15:30;;;;;;;22.20;3.55;;;10.90;99.90;;;;;;4833407;29;20048;-71
2023/01/05 07:17:56;;;;;;;17.45;3.55;;;10.90;99.90;;;;;;4851504;29;20049;-71
2023/01/05 07:20:22;;;;;;;16.48;3.08;;;10.90;99.90;;;;;;4856498;29;20053;-70
2023/01/05 07:22:48;;;;;;;17.77;3.40;;;10.90;99.90;;;;;;4859982;29;20053;-70
2023/01/05 07:25:13;;;;;;;16.80;3.10;;;10.80;99.90;;;;;;4844910;29;20101;-70
2023/01/05 07:27:39;;;;;;;17.65;3.88;;;10.80;99.90;;;;;;4860282;29;20049;-70
2023/01/05 07:30:05;;;;;;;18.73;3.85;;;10.80;99.90;;;;;;4859393;29;20116;-69
2023/01/05 07:32:31;;;;;;;18.65;3.30;;;10.80;99.90;;;;;;4842768;29;20128;-70
2023/01/05 07:34:57;;;;;;;15.95;3.13;;;10.80;99.90;;;;;;4860154;29;20186;-70
2023/01/05 07:37:23;;;;;;;16.20;2.90;;;10.80;99.90;;;;;;4860493;29;20132;-69
2023/01/05 07:39:49;;;;;;;16.38;3.47;;;10.70;99.90;;;;;;4860111;29;20096;-70
2023/01/05 07:42:15;;;;;;;23.10;4.40;;;10.70;99.90;;;;;;4860238;29;20045;-70
2023/01/05 07:44:40;;;;;;;15.23;3.13;;;10.70;99.90;;;;;;4844692;29;20431;-70
2023/01/05 07:47:06;;;;;;;21.45;3.22;;;10.70;99.90;;;;;;4859892;29;20482;-70
2023/01/05 07:49:32;;;;;;;16.27;3.22;;;10.70;99.90;;;;;;4859976;29;20046;-70
2023/01/05 07:51:58;;;;;;;18.48;3.47;;;10.70;99.90;;;;;;4844660;29;20041;-76
2023/01/05 07:54:24;;;;;;;18.58;3.00;;;10.70;99.90;;;;;;4829271;29;20520;-72
2023/01/05 07:56:50;;;;;;;16.90;2.88;;;10.70;99.90;;;;;;4845565;29;20072;-78
2023/01/05 07:59:15;;;;;;;15.15;3.03;;;10.70;99.90;;;;;;4860238;29;20408;-78
2023/01/05 08:01:41;;;;;;;14.70;2.92;;;10.60;99.90;;;;;;4845311;29;20089;-77
2023/01/05 08:04:08;;;;;;;15.48;3.00;;;10.60;99.90;;;;;;4860507;29;20071;-78
2023/01/05 08:06:34;;;;;;;15.60;2.70;;;10.60;99.90;;;;;;4861371;29;20050;-77
2023/01/05 08:10:27;;;;;;;15.63;2.92;;;10.60;99.90;;;;;;4862503;29;20519;-77
2023/01/05 08:11:45;;;;;;;11.02;2.58;;;10.60;99.90;;;;;;4859697;29;20049;-77
2023/01/05 08:14:11;;;;;;;13.80;3.17;;;10.60;99.90;;;;;;4861285;29;20046;-78
2023/01/05 08:16:36;;;;;;;14.20;2.80;;;10.60;99.90;;;;;;4845916;29;20052;-78
2023/01/05 08:19:02;;;;;;;20.17;3.05;;;10.60;99.90;;;;;;4845928;29;20045;-78
2023/01/05 08:21:28;;;;;;;14.85;3.22;;;10.60;99.90;;;;;;4845953;29;20125;-78
2023/01/05 08:23:53;;;;;;;12.30;2.60;;;10.60;99.90;;;;;;4845506;29;20049;-78
2023/01/05 08:26:22;;;;;;;12.30;2.30;;;10.60;99.90;;;;;;4845545;29;20095;-78
2023/01/05 08:28:48;;;;;;;18.98;3.85;;;10.60;99.90;;;;;;4860549;29;20529;-78
2023/01/05 08:31:16;;;;;;;;;;;10.60;99.90;;;;;;4861145;29;20045;-78
2023/01/05 08:33:42;;;;;;;12.23;2.67;;;10.60;99.90;;;;;;4844886;29;19931;-78
2023/01/05 08:36:08;;;;;;;;;;;10.60;99.90;;;;;;4861106;29;20045;-78
2023/01/05 08:38:34;;;;;;;14.55;2.97;;;10.60;99.90;;;;;;4860593;29;19920;-78
2023/01/05 08:41:02;;;;;;;17.63;2.90;;;10.60;99.90;;;;;;4860747;29;20110;-78
2023/01/05 08:43:28;;;;;;;14.52;2.95;;;10.60;99.90;;;;;;4829689;29;20193;-78
2023/01/05 08:45:54;;;;;;;16.52;3.03;;;10.60;99.90;;;;;;4844318;29;20527;-78
2023/01/05 08:48:20;;;;;;;18.00;3.47;;;10.60;99.90;;;;;;4859539;29;20049;-78
2023/01/05 08:50:45;;;;;;;14.52;3.13;;;10.60;99.90;;;;;;4860536;29;20072;-78
2023/01/05 08:53:11;;;;;;;16.08;3.13;;;10.60;99.90;;;;;;4844217;29;20405;-78
2023/01/05 08:55:37;;;;;;;22.52;3.20;;;10.60;99.90;;;;;;4859366;29;20049;-77
2023/01/05 08:58:04;;;;;;;15.85;2.97;;;10.70;99.90;;;;;;4844307;29;20053;-78
2023/01/05 09:00:31;;;;;;;15.95;3.00;;;10.70;99.90;;;;;;4845226;29;20147;-78
2023/01/05 09:02:56;;;;;;;16.52;3.00;;;10.70;99.90;;;;;;4860500;29;20050;-78
2023/01/05 09:05:22;;;;;;;18.42;3.00;;;10.70;99.90;;;;;;4844605;29;20057;-78
2023/01/05 09:07:48;;;;;;;17.35;3.35;;;10.60;99.90;;;;;;4844686;29;20068;-78
2023/01/05 09:10:14;;;;;;;22.75;3.50;;;10.70;99.90;;;;;;4829286;29;20080;-78
2023/01/05 09:12:40;;;;;;;14.65;3.30;;;10.70;99.90;;;;;;4859656;29;20096;-78
2023/01/05 09:15:07;;;;;;;16.90;3.22;;;10.70;99.90;;;;;;4843926;29;20077;-77
2023/01/05 09:17:34;;;;;;;17.80;3.50;;;10.70;99.90;;;;;;4859013;29;20100;-78
2023/01/05 09:20:02;;;;;;;17.23;3.40;;;10.70;99.90;;;;;;4859153;29;20083;-77
2023/01/05 09:22:30;;;;;;;15.73;2.85;;;10.70;99.90;;;;;;4842981;29;20060;-78
2023/01/05 09:24:56;;;;;;;19.73;2.92;;;10.70;99.90;;;;;;4842170;29;20049;-78
2023/01/05 09:27:22;;;;;;;16.88;3.25;;;10.70;99.90;;;;;;4809633;29;20042;-72
2023/01/05 09:29:47;;;;;;;17.80;3.17;;;10.70;99.90;;;;;;4839733;29;20049;-72
2023/01/05 09:32:16;;;;;;;11.65;2.70;;;10.70;99.90;;;;;;4839852;29;20092;-71
2023/01/05 09:34:42;;;;;;;15.68;2.55;;;10.70;99.90;;;;;;4839934;29;20069;-71
2023/01/05 09:37:08;;;;;;;15.13;3.08;;;10.60;99.90;;;;;;4839748;29;20495;-71
2023/01/05 09:39:33;;;;;;;11.95;2.15;;;10.70;99.90;;;;;;4839476;29;20046;-71
2023/01/05 09:42:02;;;;;;;14.85;2.72;;;10.70;99.90;;;;;;4824360;29;20057;-71
2023/01/05 09:44:37;;;;;;;17.13;2.67;;;10.70;99.90;;;;;;4839229;29;20054;-71
2023/01/05 09:47:17;;;;;;;11.40;2.88;;;10.70;99.90;;;;;;4839575;29;20376;-71
2023/01/05 09:49:46;;;;;;;11.98;2.80;;;10.70;99.90;;;;;;4839345;29;20509;-71
2023/01/05 09:52:13;;;;;;;14.93;2.92;;;10.80;99.90;;;;;;4839107;29;20048;-71
2023/01/05 09:54:39;;;;;;;12.40;2.92;;;10.80;99.90;;;;;;4839196;29;20045;-71
2023/01/05 09:57:15;;;;;;;16.23;2.78;;;10.80;99.90;;;;;;4824330;29;20112;-71
2023/01/05 09:59:45;;;;;;;15.02;3.50;;;10.90;99.90;;;;;;4823828;29;20070;-72
2023/01/05 10:02:16;;;;;;;17.45;2.83;;;10.90;99.90;;;;;;4839280;29;20050;-72
2023/01/05 10:04:43;;;;;;;12.75;2.53;;;10.90;99.90;;;;;;4824091;29;20176;-72
2023/01/05 10:07:17;;;;;;;;;;;10.90;99.90;;;;;;4824669;29;20115;-72
2023/01/05 10:09:45;;;;;;;20.02;3.30;;;10.80;99.90;;;;;;4838926;29;20377;-72
2023/01/05 10:15:11;;;;;;;12.27;2.42;;;10.80;99.90;;;;;;4838703;29;20065;-72
2023/01/05 10:17:38;;;;;;;13.25;2.35;;;10.80;99.90;;;;;;4839092;29;20098;-72
2023/01/05 10:20:32;;;;;;;11.88;2.20;;;10.90;99.90;;;;;;4870152;29;20052;-71
2023/01/05 10:23:16;;;;;;;14.02;2.17;;;10.80;99.90;;;;;;4872172;29;20049;-71
2023/01/05 10:26:23;;;;;;;9.52;2.35;;;10.80;99.90;;;;;;4857098;29;20049;-72
2023/01/05 10:29:05;;;;;;;12.90;2.30;;;10.80;99.90;;;;;;4842199;29;20482;-73
2023/01/05 10:31:51;;;;;;;14.15;2.45;;;10.70;99.90;;;;;;4857638;29;20407;-71
2023/01/05 10:34:20;;;;;;;13.50;2.47;;;10.70;99.90;;;;;;4856463;29;20049;-71
2023/01/05 10:36:52;;;;;;;8.07;1.88;;;10.70;99.90;;;;;;4856824;29;20458;-70
2023/01/05 10:39:55;;;;;;;8.77;1.63;;;10.60;99.90;;;;;;4857535;29;20111;-72
2023/01/05 10:42:44;;;;;;;6.82;1.48;;;10.60;99.90;;;;;;4857270;29;20129;-72
2023/01/05 10:45:16;;;;;;;7.38;1.35;;;10.60;99.90;;;;;;4857274;29;20049;-72
2023/01/05 10:47:44;;;;;;;9.57;1.52;;;10.50;99.90;;;;;;4857137;29;20049;-73
2023/01/05 10:50:27;;;;;;;9.13;1.58;;;10.50;99.90;;;;;;4857206;29;20048;-72
2023/01/05 10:52:53;;;;;;;5.95;1.30;;;10.50;99.90;;;;;;4856673;29;20041;-72
2023/01/05 10:55:20;;;;;;;8.75;1.58;;;10.50;99.90;;;;;;4841333;29;20101;-72
2023/01/05 10:57:46;;;;;;;7.03;1.38;;;10.50;99.90;;;;;;4856548;29;20128;-73
2023/01/05 11:00:21;;;;;;;10.35;1.85;;;10.60;99.90;;;;;;4856897;29;20517;-72
2023/01/05 11:03:02;;;;;;;8.43;1.23;;;10.60;99.90;;;;;;4856732;29;20057;-72
2023/01/05 11:05:41;;;;;;;11.05;2.00;;;10.60;99.90;;;;;;4856549;29;20057;-72
2023/01/05 11:08:34;;;;;;;8.57;1.60;;;10.60;99.90;;;;;;4856519;29;20052;-72
2023/01/05 11:11:06;;;;;;;11.13;2.10;;;10.60;99.90;;;;;;4851278;29;20080;-72
2023/01/05 11:13:48;;;;;;;10.48;2.08;;;10.60;99.90;;;;;;4856417;29;20072;-72
2023/01/05 11:16:19;;;;;;;10.15;2.03;;;10.60;99.90;;;;;;4855949;29;20059;-72
2023/01/05 11:18:57;;;;;;;11.65;2.25;;;10.60;99.90;;;;;;4841009;29;20049;-72
2023/01/05 11:21:35;;;;;;;9.43;1.92;;;10.60;99.90;;;;;;4842268;29;20137;-72
2023/01/05 11:24:02;;;;;;;11.18;2.15;;;10.60;99.90;;;;;;4856251;29;20521;-72
2023/01/05 11:26:32;;;;;;;14.75;2.35;;;10.60;99.90;;;;;;4841162;29;20056;-73
2023/01/05 11:29:12;;;;;;;9.48;2.25;;;10.60;99.90;;;;;;4856371;29;20049;-72
2023/01/05 11:32:08;;;;;;;7.22;1.95;;;10.60;99.90;;;;;;4841744;29;20458;-72
2023/01/05 11:34:37;;;;;;;7.78;1.77;;;10.70;99.90;;;;;;4856566;29;20053;-72
2023/01/05 11:37:19;;;;;;;9.45;1.92;;;10.70;99.90;;;;;;4856657;29;20206;-73
2023/01/05 11:39:49;;;;;;;8.73;1.83;;;10.60;99.90;;;;;;4857018;29;20054;-73
2023/01/05 11:42:24;;;;;;;9.10;1.80;;;10.70;99.90;;;;;;4856359;29;20054;-73
2023/01/05 11:44:52;;;;;;;9.90;2.30;;;10.70;99.90;;;;;;4856297;29;20061;-73
2023/01/05 11:47:23;;;;;;;15.25;2.33;;;10.70;99.90;;;;;;4859436;29;20514;-73
2023/01/05 11:50:02;;;;;;;11.65;2.42;;;10.70;99.90;;;;;;4860209;29;20278;-73
2023/01/05 11:52:36;;;;;;;12.05;2.55;;;10.70;99.90;;;;;;4859827;29;20065;-72
2023/01/05 11:55:32;;;;;;;11.52;2.60;;;10.70;99.90;;;;;;4859236;29;20497;-72
2023/01/05 11:58:16;;;;;;;11.02;2.28;;;10.70;99.90;;;;;;4859470;29;20175;-72
2023/01/05 12:01:20;;;;;;;13.60;2.30;;;10.80;99.90;;;;;;4859475;29;20058;-72
2023/01/05 12:03:55;;;;;;;14.73;2.40;;;10.80;99.90;;;;;;4844240;29;20053;-72
2023/01/05 12:06:30;;;;;;;12.10;2.65;;;10.90;99.90;;;;;;4844453;29;20061;-72
2023/01/05 12:09:11;;;;;;;16.65;2.75;;;10.90;99.90;;;;;;4859551;29;20046;-72
2023/01/05 12:11:57;;;;;;;7.95;1.73;;;10.90;99.90;;;;;;4859340;29;20486;-72
2023/01/05 12:14:47;;;;;;;12.90;2.33;;;11.00;99.90;;;;;;4842637;29;20049;-72
2023/01/05 12:17:14;;;;;;;12.65;2.28;;;11.00;99.90;;;;;;4859504;29;20350;-72
2023/01/05 12:19:46;;;;;;;7.47;1.73;;;11.00;99.90;;;;;;4844047;29;20148;-72
2023/01/05 12:22:12;;;;;;;10.73;1.80;;;11.00;99.90;;;;;;4843894;29;20520;-72
2023/01/05 12:24:51;;;;;;;10.43;1.77;;;10.90;99.90;;;;;;4843584;29;20054;-73
2023/01/05 12:27:40;;;;;;;7.53;1.58;;;10.90;99.90;;;;;;4843728;29;20512;-73
2023/01/05 12:30:24;;;;;;;5.13;1.45;;;10.90;99.90;;;;;;4801034;29;20064;-73
2023/01/05 12:32:56;;;;;;;8.13;1.88;;;10.90;99.90;;;;;;4858832;29;20041;-73
2023/01/05 12:35:40;;;;;;;9.07;1.73;;;10.80;99.90;;;;;;4859470;29;20049;-72
2023/01/05 12:38:22;;;;;;;6.50;1.70;;;10.80;99.90;;;;;;4858874;29;20057;-73
2023/01/05 12:41:15;;;;;;;9.18;1.60;;;10.80;99.90;;;;;;4859329;29;20096;-72
2023/01/05 12:44:04;;;;;;;6.22;1.80;;;10.80;99.90;;;;;;4858933;29;20088;-72
2023/01/05 12:46:54;;;;;;;6.90;1.50;;;10.80;99.90;;;;;;4859084;29;20053;-73
2023/01/05 12:49:43;;;;;;;8.18;1.60;;;10.80;99.90;;;;;;4859158;29;20136;-73
2023/01/05 12:52:21;;;;;;;8.57;1.92;;;10.80;99.90;;;;;;4858822;29;20442;-73
2023/01/05 12:55:17;;;;;;;7.13;1.70;;;10.80;99.90;;;;;;4858464;29;20132;-73
2023/01/05 12:57:53;;;;;;;5.90;1.40;;;10.80;99.90;;;;;;4859005;29;20053;-73
2023/01/05 13:00:24;;;;;;;6.88;1.52;;;10.80;99.90;;;;;;4858759;29;20398;-72
2023/01/05 13:02:59;;;;;;;5.47;1.60;;;10.90;99.90;;;;;;4843437;29;20128;-73
2023/01/05 13:05:27;;;;;;;6.65;1.65;;;10.90;99.90;;;;;;4858885;29;20073;-72
2023/01/05 13:08:16;;;;;;;11.23;2.20;;;10.90;99.90;;;;;;4858274;29;20049;-72
2023/01/05 13:11:06;;;;;;;10.27;2.40;;;10.90;99.90;;;;;;4842698;29;20056;-72
2023/01/05 13:13:37;;;;;;;8.70;1.60;;;10.90;99.90;;;;;;4858617;29;20506;-72
2023/01/05 13:16:16;;;;;;;7.38;1.50;;;10.90;99.90;;;;;;4858505;29;20506;-72
2023/01/05 13:18:47;;;;;;;7.97;1.80;;;11.00;99.90;;;;;;4858705;29;20079;-72
2023/01/05 13:21:15;;;;;;;6.65;1.80;;;11.00;99.90;;;;;;4858559;29;20091;-72
2023/01/05 13:23:46;;;;;;;6.97;1.70;;;11.00;99.90;;;;;;4858180;29;20093;-72
2023/01/05 13:26:17;;;;;;;11.80;2.10;;;11.10;99.90;;;;;;4858155;29;20053;-73
2023/01/05 13:28:54;;;;;;;11.88;2.00;;;11.10;99.90;;;;;;4858246;29;20091;-73
2023/01/05 13:31:32;;;;;;;12.65;2.60;;;11.00;99.90;;;;;;4859049;29;20184;-72